Las Palmas — CQHP — position and weather

sailwx.info

Track history (hours):
 
Tides and Currents Weather Stations Pressure Air Temp Water Temp Dewpoint Dewpoint Depression Visibility Wind Speed Wind Dir Waves Ship Positions

Las Palmas

Last reported at 2017-Sep-19 20:34 UTC. Time now 2017-Sep-24 07:04 UTC.
Position N 01°15' E 104°10'.

Length 128 m; draft 5.4 m.

Type: Cargo ship. MMSI: 255805591.

Date/timePositionNaut miles runAvg speedWind from/ knotsBaromVisibWave heightAir tempDewpointWater temp
2017-Sep-19 20:34N 01°15' E 104°10'2 4.1
2017-Sep-19 20:11N 01°15' E 104°08'1 3.4
2017-Sep-19 19:55N 01°15' E 104°07'2 3.7
2017-Sep-19 19:30N 01°15' E 104°06'2 3.8
2017-Sep-19 18:51N 01°14' E 104°03'13 1.6
2017-Sep-19 10:39N 01°17' E 104°16'515.0
2017-Sep-19 10:19N 01°16' E 104°11'514.8
2017-Sep-19 09:59N 01°15' E 104°06'714.8
2017-Sep-19 09:30N 01°14' E 103°59'714.7
2017-Sep-19 09:00N 01°11' E 103°52'714.5
2017-Sep-19 08:30N 01°08' E 103°46'815.5
2017-Sep-19 08:00N 01°03' E 103°40'714.3
2017-Sep-19 07:30N 01°06' E 103°33'815.3
2017-Sep-19 06:58N 01°10' E 103°27'  
Track history (hours):
 
Tides and Currents Weather Stations Pressure Air Temp Water Temp Dewpoint Dewpoint Depression Visibility Wind Speed Wind Dir Waves Ship Positions

Las Palmas

Last reported at 2017-Sep-19 20:34 UTC. Time now 2017-Sep-24 07:04 UTC.
Position N 01°15' E 104°10'.

Length 128 m; draft 5.4 m.

Type: Cargo ship. MMSI: 255805591.

Date/timePositionNaut miles runAvg speedWind from/ knotsBaromVisibWave heightAir tempDewpointWater temp
2017-Sep-19 20:34N 01°15' E 104°10'2 4.1
2017-Sep-19 20:11N 01°15' E 104°08'1 3.4
2017-Sep-19 19:55N 01°15' E 104°07'2 3.7
2017-Sep-19 19:30N 01°15' E 104°06'2 3.8
2017-Sep-19 18:51N 01°14' E 104°03'13 1.6
2017-Sep-19 10:39N 01°17' E 104°16'515.0
2017-Sep-19 10:19N 01°16' E 104°11'514.8
2017-Sep-19 09:59N 01°15' E 104°06'714.8
2017-Sep-19 09:30N 01°14' E 103°59'714.7
2017-Sep-19 09:00N 01°11' E 103°52'714.5
2017-Sep-19 08:30N 01°08' E 103°46'815.5
2017-Sep-19 08:00N 01°03' E 103°40'714.3
2017-Sep-19 07:30N 01°06' E 103°33'815.3
2017-Sep-19 06:58N 01°10' E 103°27'  

Dump ship's entire track history